sensor_id;sensor_type;location;lat;lon;timestamp;P1;durP1;ratioP1;P2;durP2;ratioP2
74510;SDS011;62991;50.040;18.400;2023-10-09T00:01:31;16.52;;;5.93;;
74510;SDS011;62991;50.040;18.400;2023-10-09T00:04:32;14.88;;;5.55;;
74510;SDS011;62991;50.040;18.400;2023-10-09T00:07:35;14.18;;;5.82;;
74510;SDS011;62991;50.040;18.400;2023-10-09T00:10:36;11.82;;;4.68;;
74510;SDS011;62991;50.040;18.400;2023-10-09T00:13:49;12.60;;;4.70;;
74510;SDS011;62991;50.040;18.400;2023-10-09T00:16:49;12.38;;;4.72;;
74510;SDS011;62991;50.040;18.400;2023-10-09T00:19:56;13.05;;;4.55;;
74510;SDS011;62991;50.040;18.400;2023-10-09T00:23:00;13.73;;;5.50;;
74510;SDS011;62991;50.040;18.400;2023-10-09T00:26:00;14.90;;;5.30;;
74510;SDS011;62991;50.040;18.400;2023-10-09T00:29:17;10.95;;;4.38;;
74510;SDS011;62991;50.040;18.400;2023-10-09T00:32:23;14.85;;;6.07;;
74510;SDS011;62991;50.040;18.400;2023-10-09T00:35:27;17.20;;;6.50;;
74510;SDS011;62991;50.040;18.400;2023-10-09T00:38:39;43.65;;;12.38;;
74510;SDS011;62991;50.040;18.400;2023-10-09T00:41:45;39.55;;;13.15;;
74510;SDS011;62991;50.040;18.400;2023-10-09T00:44:46;61.30;;;16.75;;
74510;SDS011;62991;50.040;18.400;2023-10-09T00:47:49;30.42;;;11.23;;
74510;SDS011;62991;50.040;18.400;2023-10-09T00:50:50;12.45;;;5.15;;
74510;SDS011;62991;50.040;18.400;2023-10-09T00:53:55;13.88;;;4.70;;
74510;SDS011;62991;50.040;18.400;2023-10-09T00:57:07;15.40;;;6.70;;
74510;SDS011;62991;50.040;18.400;2023-10-09T01:00:13;11.57;;;4.90;;
74510;SDS011;62991;50.040;18.400;2023-10-09T01:03:32;10.57;;;4.90;;
74510;SDS011;62991;50.040;18.400;2023-10-09T01:06:33;14.05;;;4.57;;
74510;SDS011;62991;50.040;18.400;2023-10-09T01:09:43;11.85;;;4.57;;
74510;SDS011;62991;50.040;18.400;2023-10-09T01:12:44;10.48;;;4.45;;
74510;SDS011;62991;50.040;18.400;2023-10-09T01:15:47;9.07;;;4.20;;
74510;SDS011;62991;50.040;18.400;2023-10-09T01:18:49;17.02;;;5.80;;
74510;SDS011;62991;50.040;18.400;2023-10-09T01:21:51;12.35;;;4.40;;
74510;SDS011;62991;50.040;18.400;2023-10-09T01:24:52;11.98;;;3.80;;
74510;SDS011;62991;50.040;18.400;2023-10-09T01:27:55;14.20;;;4.18;;
74510;SDS011;62991;50.040;18.400;2023-10-09T01:30:57;11.10;;;5.47;;
74510;SDS011;62991;50.040;18.400;2023-10-09T01:33:57;11.93;;;5.00;;
74510;SDS011;62991;50.040;18.400;2023-10-09T01:36:59;12.82;;;4.97;;
74510;SDS011;62991;50.040;18.400;2023-10-09T01:40:05;12.45;;;4.45;;
74510;SDS011;62991;50.040;18.400;2023-10-09T01:43:25;8.65;;;3.85;;
74510;SDS011;62991;50.040;18.400;2023-10-09T01:46:27;11.48;;;3.97;;
74510;SDS011;62991;50.040;18.400;2023-10-09T01:49:27;11.50;;;4.68;;
74510;SDS011;62991;50.040;18.400;2023-10-09T01:52:31;10.32;;;4.55;;
74510;SDS011;62991;50.040;18.400;2023-10-09T01:55:36;9.38;;;3.75;;
74510;SDS011;62991;50.040;18.400;2023-10-09T01:58:40;31.83;;;14.27;;
74510;SDS011;62991;50.040;18.400;2023-10-09T02:01:42;12.95;;;6.07;;
74510;SDS011;62991;50.040;18.400;2023-10-09T02:04:47;12.27;;;4.60;;
74510;SDS011;62991;50.040;18.400;2023-10-09T02:07:48;8.75;;;4.60;;
74510;SDS011;62991;50.040;18.400;2023-10-09T02:10:52;8.68;;;3.58;;
74510;SDS011;62991;50.040;18.400;2023-10-09T02:13:56;10.82;;;4.25;;
74510;SDS011;62991;50.040;18.400;2023-10-09T02:16:56;13.43;;;4.18;;
74510;SDS011;62991;50.040;18.400;2023-10-09T02:20:08;7.38;;;3.22;;
74510;SDS011;62991;50.040;18.400;2023-10-09T02:23:18;10.73;;;4.13;;
74510;SDS011;62991;50.040;18.400;2023-10-09T02:26:24;9.65;;;4.15;;
74510;SDS011;62991;50.040;18.400;2023-10-09T02:29:47;25.58;;;8.30;;
74510;SDS011;62991;50.040;18.400;2023-10-09T02:32:48;10.65;;;4.38;;
74510;SDS011;62991;50.040;18.400;2023-10-09T02:35:52;6.75;;;3.58;;
74510;SDS011;62991;50.040;18.400;2023-10-09T02:38:59;8.10;;;3.33;;
74510;SDS011;62991;50.040;18.400;2023-10-09T02:42:00;8.45;;;3.60;;
74510;SDS011;62991;50.040;18.400;2023-10-09T02:45:19;14.23;;;4.00;;
74510;SDS011;62991;50.040;18.400;2023-10-09T02:48:28;11.15;;;3.97;;
74510;SDS011;62991;50.040;18.400;2023-10-09T02:51:33;9.43;;;4.07;;
74510;SDS011;62991;50.040;18.400;2023-10-09T02:54:41;7.93;;;2.95;;
74510;SDS011;62991;50.040;18.400;2023-10-09T02:57:42;5.78;;;3.28;;
74510;SDS011;62991;50.040;18.400;2023-10-09T03:00:45;7.35;;;3.13;;
74510;SDS011;62991;50.040;18.400;2023-10-09T03:03:47;5.95;;;2.80;;
74510;SDS011;62991;50.040;18.400;2023-10-09T03:06:47;6.53;;;2.83;;
74510;SDS011;62991;50.040;18.400;2023-10-09T03:09:51;6.40;;;2.42;;
74510;SDS011;62991;50.040;18.400;2023-10-09T03:12:52;3.58;;;2.13;;
74510;SDS011;62991;50.040;18.400;2023-10-09T03:15:53;7.70;;;2.88;;
74510;SDS011;62991;50.040;18.400;2023-10-09T03:18:53;5.47;;;2.30;;
74510;SDS011;62991;50.040;18.400;2023-10-09T03:21:54;7.20;;;2.80;;
74510;SDS011;62991;50.040;18.400;2023-10-09T03:24:57;5.80;;;1.92;;
74510;SDS011;62991;50.040;18.400;2023-10-09T03:27:58;6.85;;;2.75;;
74510;SDS011;62991;50.040;18.400;2023-10-09T03:30:59;4.43;;;2.15;;
74510;SDS011;62991;50.040;18.400;2023-10-09T03:34:03;5.88;;;2.75;;
74510;SDS011;62991;50.040;18.400;2023-10-09T03:37:04;6.05;;;2.47;;
74510;SDS011;62991;50.040;18.400;2023-10-09T03:40:05;8.18;;;2.63;;
74510;SDS011;62991;50.040;18.400;2023-10-09T03:43:08;4.32;;;2.00;;
74510;SDS011;62991;50.040;18.400;2023-10-09T03:46:10;5.50;;;2.38;;
74510;SDS011;62991;50.040;18.400;2023-10-09T03:49:21;5.05;;;2.67;;
74510;SDS011;62991;50.040;18.400;2023-10-09T03:52:26;5.57;;;2.17;;
74510;SDS011;62991;50.040;18.400;2023-10-09T03:58:32;7.28;;;2.65;;
74510;SDS011;62991;50.040;18.400;2023-10-09T04:01:34;6.22;;;2.92;;
74510;SDS011;62991;50.040;18.400;2023-10-09T04:04:38;8.20;;;3.03;;
74510;SDS011;62991;50.040;18.400;2023-10-09T04:07:39;6.28;;;2.70;;
74510;SDS011;62991;50.040;18.400;2023-10-09T04:10:42;5.05;;;2.53;;
74510;SDS011;62991;50.040;18.400;2023-10-09T04:13:51;4.32;;;1.85;;
74510;SDS011;62991;50.040;18.400;2023-10-09T04:16:52;4.55;;;2.17;;
74510;SDS011;62991;50.040;18.400;2023-10-09T04:20:04;5.88;;;2.35;;
74510;SDS011;62991;50.040;18.400;2023-10-09T04:23:18;4.00;;;1.92;;
74510;SDS011;62991;50.040;18.400;2023-10-09T04:26:34;4.25;;;1.98;;
74510;SDS011;62991;50.040;18.400;2023-10-09T04:29:37;4.78;;;2.10;;
74510;SDS011;62991;50.040;18.400;2023-10-09T04:32:38;5.57;;;2.25;;
74510;SDS011;62991;50.040;18.400;2023-10-09T04:35:40;5.25;;;2.10;;
74510;SDS011;62991;50.040;18.400;2023-10-09T04:38:46;4.18;;;1.90;;
74510;SDS011;62991;50.040;18.400;2023-10-09T04:42:19;8.98;;;2.50;;
74510;SDS011;62991;50.040;18.400;2023-10-09T04:45:20;4.22;;;2.17;;
74510;SDS011;62991;50.040;18.400;2023-10-09T04:48:41;5.55;;;2.20;;
74510;SDS011;62991;50.040;18.400;2023-10-09T04:55:04;7.50;;;2.42;;
74510;SDS011;62991;50.040;18.400;2023-10-09T04:58:08;8.45;;;2.50;;
74510;SDS011;62991;50.040;18.400;2023-10-09T05:01:12;6.13;;;2.90;;
74510;SDS011;62991;50.040;18.400;2023-10-09T05:04:14;8.68;;;2.80;;
74510;SDS011;62991;50.040;18.400;2023-10-09T05:07:39;5.45;;;1.67;;
74510;SDS011;62991;50.040;18.400;2023-10-09T05:10:58;5.85;;;1.80;;
74510;SDS011;62991;50.040;18.400;2023-10-09T05:14:01;4.15;;;1.80;;
74510;SDS011;62991;50.040;18.400;2023-10-09T05:17:13;6.10;;;2.60;;
74510;SDS011;62991;50.040;18.400;2023-10-09T05:20:17;6.78;;;2.92;;
74510;SDS011;62991;50.040;18.400;2023-10-09T05:23:26;13.05;;;5.25;;
74510;SDS011;62991;50.040;18.400;2023-10-09T05:26:27;12.75;;;5.88;;
74510;SDS011;62991;50.040;18.400;2023-10-09T05:29:46;5.32;;;2.47;;
74510;SDS011;62991;50.040;18.400;2023-10-09T05:32:59;9.80;;;2.00;;
74510;SDS011;62991;50.040;18.400;2023-10-09T05:36:05;4.05;;;1.55;;
74510;SDS011;62991;50.040;18.400;2023-10-09T05:39:25;3.38;;;1.55;;
74510;SDS011;62991;50.040;18.400;2023-10-09T05:42:46;3.95;;;1.67;;
74510;SDS011;62991;50.040;18.400;2023-10-09T05:45:57;6.03;;;2.30;;
74510;SDS011;62991;50.040;18.400;2023-10-09T05:49:09;3.75;;;1.67;;
74510;SDS011;62991;50.040;18.400;2023-10-09T05:52:19;5.07;;;1.77;;
74510;SDS011;62991;50.040;18.400;2023-10-09T05:55:39;3.45;;;1.60;;
74510;SDS011;62991;50.040;18.400;2023-10-09T05:59:09;4.60;;;1.98;;
74510;SDS011;62991;50.040;18.400;2023-10-09T06:02:28;10.10;;;2.55;;
74510;SDS011;62991;50.040;18.400;2023-10-09T06:05:48;6.50;;;2.95;;
74510;SDS011;62991;50.040;18.400;2023-10-09T06:09:05;8.27;;;3.00;;
74510;SDS011;62991;50.040;18.400;2023-10-09T06:12:15;6.15;;;1.98;;
74510;SDS011;62991;50.040;18.400;2023-10-09T06:15:39;3.88;;;1.65;;
74510;SDS011;62991;50.040;18.400;2023-10-09T06:18:46;5.10;;;2.30;;
74510;SDS011;62991;50.040;18.400;2023-10-09T06:22:07;4.75;;;2.20;;
74510;SDS011;62991;50.040;18.400;2023-10-09T06:25:27;5.55;;;2.85;;
74510;SDS011;62991;50.040;18.400;2023-10-09T06:28:32;9.25;;;2.95;;
74510;SDS011;62991;50.040;18.400;2023-10-09T06:31:33;9.45;;;3.65;;
74510;SDS011;62991;50.040;18.400;2023-10-09T06:34:56;8.15;;;3.95;;
74510;SDS011;62991;50.040;18.400;2023-10-09T06:38:17;21.52;;;7.43;;
74510;SDS011;62991;50.040;18.400;2023-10-09T06:41:33;14.88;;;5.18;;
74510;SDS011;62991;50.040;18.400;2023-10-09T06:44:45;17.83;;;6.13;;
74510;SDS011;62991;50.040;18.400;2023-10-09T06:47:54;13.45;;;5.43;;
74510;SDS011;62991;50.040;18.400;2023-10-09T06:51:30;15.75;;;6.85;;
74510;SDS011;62991;50.040;18.400;2023-10-09T06:54:30;13.52;;;6.28;;
74510;SDS011;62991;50.040;18.400;2023-10-09T06:57:37;7.95;;;3.85;;
74510;SDS011;62991;50.040;18.400;2023-10-09T07:00:44;7.85;;;3.88;;
74510;SDS011;62991;50.040;18.400;2023-10-09T07:04:03;21.73;;;9.77;;
74510;SDS011;62991;50.040;18.400;2023-10-09T07:07:19;11.02;;;4.85;;
74510;SDS011;62991;50.040;18.400;2023-10-09T07:10:24;8.80;;;4.78;;
74510;SDS011;62991;50.040;18.400;2023-10-09T07:13:32;14.18;;;8.80;;
74510;SDS011;62991;50.040;18.400;2023-10-09T07:16:37;8.63;;;4.18;;
74510;SDS011;62991;50.040;18.400;2023-10-09T07:19:57;8.95;;;4.10;;
74510;SDS011;62991;50.040;18.400;2023-10-09T07:23:09;7.55;;;2.97;;
74510;SDS011;62991;50.040;18.400;2023-10-09T07:26:17;7.68;;;2.92;;
74510;SDS011;62991;50.040;18.400;2023-10-09T07:29:19;6.57;;;3.15;;
74510;SDS011;62991;50.040;18.400;2023-10-09T07:32:23;7.90;;;3.78;;
74510;SDS011;62991;50.040;18.400;2023-10-09T07:35:27;9.52;;;3.50;;
74510;SDS011;62991;50.040;18.400;2023-10-09T07:38:43;11.20;;;3.88;;
74510;SDS011;62991;50.040;18.400;2023-10-09T07:41:45;11.70;;;5.40;;
74510;SDS011;62991;50.040;18.400;2023-10-09T07:44:56;7.97;;;3.85;;
74510;SDS011;62991;50.040;18.400;2023-10-09T07:47:57;11.07;;;4.50;;
74510;SDS011;62991;50.040;18.400;2023-10-09T07:51:11;9.10;;;3.88;;
74510;SDS011;62991;50.040;18.400;2023-10-09T07:54:12;9.32;;;4.55;;
74510;SDS011;62991;50.040;18.400;2023-10-09T07:57:31;8.57;;;3.95;;
74510;SDS011;62991;50.040;18.400;2023-10-09T08:00:38;11.70;;;4.75;;
74510;SDS011;62991;50.040;18.400;2023-10-09T08:03:57;11.30;;;4.93;;
74510;SDS011;62991;50.040;18.400;2023-10-09T08:07:01;15.02;;;7.22;;
74510;SDS011;62991;50.040;18.400;2023-10-09T08:10:07;8.77;;;4.25;;
74510;SDS011;62991;50.040;18.400;2023-10-09T08:13:17;5.40;;;2.90;;
74510;SDS011;62991;50.040;18.400;2023-10-09T08:16:41;11.10;;;3.28;;
74510;SDS011;62991;50.040;18.400;2023-10-09T08:19:46;8.32;;;3.13;;
74510;SDS011;62991;50.040;18.400;2023-10-09T08:22:55;9.85;;;4.13;;
74510;SDS011;62991;50.040;18.400;2023-10-09T08:26:02;9.80;;;3.97;;
74510;SDS011;62991;50.040;18.400;2023-10-09T08:29:17;6.03;;;3.35;;
74510;SDS011;62991;50.040;18.400;2023-10-09T08:32:19;10.02;;;4.07;;
74510;SDS011;62991;50.040;18.400;2023-10-09T08:35:38;16.27;;;7.18;;
74510;SDS011;62991;50.040;18.400;2023-10-09T08:41:49;11.88;;;5.75;;
74510;SDS011;62991;50.040;18.400;2023-10-09T08:44:52;56.03;;;22.98;;
74510;SDS011;62991;50.040;18.400;2023-10-09T08:47:54;31.95;;;13.65;;
74510;SDS011;62991;50.040;18.400;2023-10-09T08:50:55;21.02;;;8.85;;
74510;SDS011;62991;50.040;18.400;2023-10-09T08:53:56;22.83;;;10.27;;
74510;SDS011;62991;50.040;18.400;2023-10-09T08:56:58;22.00;;;8.35;;
74510;SDS011;62991;50.040;18.400;2023-10-09T08:59:58;15.20;;;8.48;;
74510;SDS011;62991;50.040;18.400;2023-10-09T09:02:59;11.98;;;6.18;;
74510;SDS011;62991;50.040;18.400;2023-10-09T09:06:04;26.85;;;11.15;;
74510;SDS011;62991;50.040;18.400;2023-10-09T09:09:11;10.98;;;5.70;;
74510;SDS011;62991;50.040;18.400;2023-10-09T09:12:15;14.88;;;7.75;;
74510;SDS011;62991;50.040;18.400;2023-10-09T09:15:16;8.00;;;4.32;;
74510;SDS011;62991;50.040;18.400;2023-10-09T09:18:20;15.43;;;6.93;;
74510;SDS011;62991;50.040;18.400;2023-10-09T09:21:22;17.25;;;8.35;;
74510;SDS011;62991;50.040;18.400;2023-10-09T09:24:23;13.25;;;6.72;;
74510;SDS011;62991;50.040;18.400;2023-10-09T09:27:23;10.98;;;4.53;;
74510;SDS011;62991;50.040;18.400;2023-10-09T09:30:49;27.55;;;11.68;;
74510;SDS011;62991;50.040;18.400;2023-10-09T09:37:04;11.27;;;4.93;;
74510;SDS011;62991;50.040;18.400;2023-10-09T09:40:05;10.57;;;4.53;;
74510;SDS011;62991;50.040;18.400;2023-10-09T09:43:15;7.50;;;3.17;;
74510;SDS011;62991;50.040;18.400;2023-10-09T09:46:22;20.00;;;9.15;;
74510;SDS011;62991;50.040;18.400;2023-10-09T09:49:33;13.23;;;6.78;;
74510;SDS011;62991;50.040;18.400;2023-10-09T09:52:38;11.35;;;5.15;;
74510;SDS011;62991;50.040;18.400;2023-10-09T09:55:39;19.40;;;8.00;;
74510;SDS011;62991;50.040;18.400;2023-10-09T09:58:57;24.85;;;12.63;;
74510;SDS011;62991;50.040;18.400;2023-10-09T10:05:10;15.40;;;7.05;;
74510;SDS011;62991;50.040;18.400;2023-10-09T10:08:19;13.20;;;5.75;;
74510;SDS011;62991;50.040;18.400;2023-10-09T10:11:43;11.98;;;5.38;;
74510;SDS011;62991;50.040;18.400;2023-10-09T10:18:12;14.23;;;7.45;;
74510;SDS011;62991;50.040;18.400;2023-10-09T10:21:19;10.52;;;4.50;;
74510;SDS011;62991;50.040;18.400;2023-10-09T10:28:14;23.15;;;12.43;;
74510;SDS011;62991;50.040;18.400;2023-10-09T10:31:15;14.45;;;8.10;;
74510;SDS011;62991;50.040;18.400;2023-10-09T10:34:16;20.95;;;8.80;;
74510;SDS011;62991;50.040;18.400;2023-10-09T10:37:39;7.25;;;3.58;;
74510;SDS011;62991;50.040;18.400;2023-10-09T10:41:09;16.30;;;6.43;;
74510;SDS011;62991;50.040;18.400;2023-10-09T10:44:26;22.45;;;7.15;;
74510;SDS011;62991;50.040;18.400;2023-10-09T10:47:42;30.45;;;9.95;;
74510;SDS011;62991;50.040;18.400;2023-10-09T10:50:43;10.93;;;4.93;;
74510;SDS011;62991;50.040;18.400;2023-10-09T10:53:52;15.85;;;6.50;;
74510;SDS011;62991;50.040;18.400;2023-10-09T10:56:57;15.98;;;5.40;;
74510;SDS011;62991;50.040;18.400;2023-10-09T11:00:00;20.65;;;7.28;;
74510;SDS011;62991;50.040;18.400;2023-10-09T11:03:32;56.15;;;19.45;;
74510;SDS011;62991;50.040;18.400;2023-10-09T11:06:54;79.82;;;25.85;;
74510;SDS011;62991;50.040;18.400;2023-10-09T11:10:21;22.73;;;9.52;;
74510;SDS011;62991;50.040;18.400;2023-10-09T11:13:31;10.70;;;5.20;;
74510;SDS011;62991;50.040;18.400;2023-10-09T11:16:36;12.07;;;4.70;;
74510;SDS011;62991;50.040;18.400;2023-10-09T11:19:44;18.05;;;8.20;;
74510;SDS011;62991;50.040;18.400;2023-10-09T11:22:45;51.20;;;20.10;;
74510;SDS011;62991;50.040;18.400;2023-10-09T11:26:12;20.88;;;9.20;;
74510;SDS011;62991;50.040;18.400;2023-10-09T11:29:29;26.10;;;10.70;;
74510;SDS011;62991;50.040;18.400;2023-10-09T11:32:49;26.40;;;11.35;;
74510;SDS011;62991;50.040;18.400;2023-10-09T11:35:55;27.20;;;12.20;;
74510;SDS011;62991;50.040;18.400;2023-10-09T11:38:57;28.70;;;11.18;;
74510;SDS011;62991;50.040;18.400;2023-10-09T11:45:22;28.05;;;9.52;;
74510;SDS011;62991;50.040;18.400;2023-10-09T11:48:31;15.48;;;5.95;;
74510;SDS011;62991;50.040;18.400;2023-10-09T11:51:46;38.55;;;13.60;;
74510;SDS011;62991;50.040;18.400;2023-10-09T11:55:08;31.80;;;10.45;;
74510;SDS011;62991;50.040;18.400;2023-10-09T11:58:21;22.55;;;10.25;;
74510;SDS011;62991;50.040;18.400;2023-10-09T12:01:22;21.80;;;8.45;;
74510;SDS011;62991;50.040;18.400;2023-10-09T12:04:23;25.00;;;10.07;;
74510;SDS011;62991;50.040;18.400;2023-10-09T12:07:30;12.88;;;5.13;;
74510;SDS011;62991;50.040;18.400;2023-10-09T12:10:31;12.57;;;4.72;;
74510;SDS011;62991;50.040;18.400;2023-10-09T12:13:34;13.65;;;5.13;;
74510;SDS011;62991;50.040;18.400;2023-10-09T12:16:34;14.05;;;6.47;;
74510;SDS011;62991;50.040;18.400;2023-10-09T12:19:39;17.42;;;6.75;;
74510;SDS011;62991;50.040;18.400;2023-10-09T12:22:40;13.23;;;5.45;;
74510;SDS011;62991;50.040;18.400;2023-10-09T12:25:41;11.98;;;4.25;;
74510;SDS011;62991;50.040;18.400;2023-10-09T12:28:45;14.60;;;5.22;;
74510;SDS011;62991;50.040;18.400;2023-10-09T12:31:46;7.22;;;4.07;;
74510;SDS011;62991;50.040;18.400;2023-10-09T12:34:46;15.32;;;6.70;;
74510;SDS011;62991;50.040;18.400;2023-10-09T12:37:53;6.15;;;3.17;;
74510;SDS011;62991;50.040;18.400;2023-10-09T12:41:00;19.02;;;6.55;;
74510;SDS011;62991;50.040;18.400;2023-10-09T12:44:25;10.20;;;4.50;;
74510;SDS011;62991;50.040;18.400;2023-10-09T12:47:27;12.35;;;5.20;;
74510;SDS011;62991;50.040;18.400;2023-10-09T12:50:28;9.90;;;4.00;;
74510;SDS011;62991;50.040;18.400;2023-10-09T12:53:29;19.00;;;6.13;;
74510;SDS011;62991;50.040;18.400;2023-10-09T12:56:30;17.95;;;6.28;;
74510;SDS011;62991;50.040;18.400;2023-10-09T12:59:37;50.70;;;16.02;;
74510;SDS011;62991;50.040;18.400;2023-10-09T13:02:37;8.60;;;3.58;;
74510;SDS011;62991;50.040;18.400;2023-10-09T13:05:47;12.25;;;4.70;;
74510;SDS011;62991;50.040;18.400;2023-10-09T13:09:03;15.85;;;4.18;;
74510;SDS011;62991;50.040;18.400;2023-10-09T13:12:06;10.05;;;4.03;;
74510;SDS011;62991;50.040;18.400;2023-10-09T13:15:18;7.88;;;4.00;;
74510;SDS011;62991;50.040;18.400;2023-10-09T13:18:21;13.63;;;4.90;;
74510;SDS011;62991;50.040;18.400;2023-10-09T13:21:25;8.93;;;4.22;;
74510;SDS011;62991;50.040;18.400;2023-10-09T13:24:27;9.80;;;3.78;;
74510;SDS011;62991;50.040;18.400;2023-10-09T13:27:29;19.33;;;5.63;;
74510;SDS011;62991;50.040;18.400;2023-10-09T13:30:37;8.00;;;3.65;;
74510;SDS011;62991;50.040;18.400;2023-10-09T13:33:43;12.27;;;3.92;;
74510;SDS011;62991;50.040;18.400;2023-10-09T13:36:44;16.02;;;4.22;;
74510;SDS011;62991;50.040;18.400;2023-10-09T13:39:55;13.27;;;4.50;;
74510;SDS011;62991;50.040;18.400;2023-10-09T13:42:57;10.30;;;3.88;;
74510;SDS011;62991;50.040;18.400;2023-10-09T13:45:58;11.43;;;4.10;;
74510;SDS011;62991;50.040;18.400;2023-10-09T13:49:03;7.95;;;4.35;;
74510;SDS011;62991;50.040;18.400;2023-10-09T13:52:09;10.25;;;4.40;;
74510;SDS011;62991;50.040;18.400;2023-10-09T13:55:09;11.27;;;4.55;;
74510;SDS011;62991;50.040;18.400;2023-10-09T13:58:16;16.48;;;5.78;;
74510;SDS011;62991;50.040;18.400;2023-10-09T14:01:20;13.18;;;5.07;;
74510;SDS011;62991;50.040;18.400;2023-10-09T14:04:27;15.35;;;5.20;;
74510;SDS011;62991;50.040;18.400;2023-10-09T14:07:28;19.35;;;6.55;;
74510;SDS011;62991;50.040;18.400;2023-10-09T14:10:29;17.08;;;7.95;;
74510;SDS011;62991;50.040;18.400;2023-10-09T14:13:30;22.02;;;9.32;;
74510;SDS011;62991;50.040;18.400;2023-10-09T14:16:31;9.40;;;5.22;;
74510;SDS011;62991;50.040;18.400;2023-10-09T14:19:33;17.08;;;7.75;;
74510;SDS011;62991;50.040;18.400;2023-10-09T14:22:33;22.35;;;9.43;;
74510;SDS011;62991;50.040;18.400;2023-10-09T14:25:38;17.08;;;7.57;;
74510;SDS011;62991;50.040;18.400;2023-10-09T14:28:41;24.85;;;7.35;;
74510;SDS011;62991;50.040;18.400;2023-10-09T14:31:43;16.25;;;6.80;;
74510;SDS011;62991;50.040;18.400;2023-10-09T14:34:49;14.73;;;7.43;;
74510;SDS011;62991;50.040;18.400;2023-10-09T14:37:50;15.00;;;6.38;;
74510;SDS011;62991;50.040;18.400;2023-10-09T14:40:51;19.02;;;8.13;;
74510;SDS011;62991;50.040;18.400;2023-10-09T14:43:57;15.95;;;6.82;;
74510;SDS011;62991;50.040;18.400;2023-10-09T14:46:59;20.10;;;9.25;;
74510;SDS011;62991;50.040;18.400;2023-10-09T14:49:59;25.80;;;8.93;;
74510;SDS011;62991;50.040;18.400;2023-10-09T14:53:01;15.27;;;6.55;;
74510;SDS011;62991;50.040;18.400;2023-10-09T14:56:02;17.83;;;7.50;;
74510;SDS011;62991;50.040;18.400;2023-10-09T14:59:09;19.10;;;7.63;;
74510;SDS011;62991;50.040;18.400;2023-10-09T15:02:11;10.73;;;5.50;;
74510;SDS011;62991;50.040;18.400;2023-10-09T15:05:12;19.58;;;7.55;;
74510;SDS011;62991;50.040;18.400;2023-10-09T15:08:13;14.63;;;6.20;;
74510;SDS011;62991;50.040;18.400;2023-10-09T15:11:14;19.40;;;7.80;;
74510;SDS011;62991;50.040;18.400;2023-10-09T15:14:15;15.85;;;6.78;;
74510;SDS011;62991;50.040;18.400;2023-10-09T15:17:18;25.73;;;7.55;;
74510;SDS011;62991;50.040;18.400;2023-10-09T15:20:19;19.85;;;9.25;;
74510;SDS011;62991;50.040;18.400;2023-10-09T15:23:21;16.00;;;8.00;;
74510;SDS011;62991;50.040;18.400;2023-10-09T15:26:22;17.08;;;7.63;;
74510;SDS011;62991;50.040;18.400;2023-10-09T15:29:25;18.83;;;8.13;;
74510;SDS011;62991;50.040;18.400;2023-10-09T15:32:30;17.70;;;8.63;;
74510;SDS011;62991;50.040;18.400;2023-10-09T15:35:35;19.55;;;8.13;;
74510;SDS011;62991;50.040;18.400;2023-10-09T15:38:35;18.70;;;9.00;;
74510;SDS011;62991;50.040;18.400;2023-10-09T15:41:36;21.98;;;9.27;;
74510;SDS011;62991;50.040;18.400;2023-10-09T15:44:39;26.23;;;10.57;;
74510;SDS011;62991;50.040;18.400;2023-10-09T15:47:41;24.48;;;10.23;;
74510;SDS011;62991;50.040;18.400;2023-10-09T15:50:45;31.75;;;13.85;;
74510;SDS011;62991;50.040;18.400;2023-10-09T15:53:50;32.88;;;13.93;;
74510;SDS011;62991;50.040;18.400;2023-10-09T15:56:51;35.13;;;16.35;;
74510;SDS011;62991;50.040;18.400;2023-10-09T15:59:54;41.42;;;16.08;;
74510;SDS011;62991;50.040;18.400;2023-10-09T16:02:55;36.45;;;14.00;;
74510;SDS011;62991;50.040;18.400;2023-10-09T16:05:57;33.38;;;14.60;;
74510;SDS011;62991;50.040;18.400;2023-10-09T16:08:59;41.25;;;16.80;;
74510;SDS011;62991;50.040;18.400;2023-10-09T16:12:00;47.47;;;20.85;;
74510;SDS011;62991;50.040;18.400;2023-10-09T16:15:00;50.33;;;19.92;;
74510;SDS011;62991;50.040;18.400;2023-10-09T16:18:01;40.17;;;17.08;;
74510;SDS011;62991;50.040;18.400;2023-10-09T16:21:06;36.30;;;15.82;;
74510;SDS011;62991;50.040;18.400;2023-10-09T16:24:08;50.35;;;17.90;;
74510;SDS011;62991;50.040;18.400;2023-10-09T16:27:10;29.73;;;14.60;;
74510;SDS011;62991;50.040;18.400;2023-10-09T16:30:17;36.72;;;13.80;;
74510;SDS011;62991;50.040;18.400;2023-10-09T16:33:20;34.47;;;14.80;;
74510;SDS011;62991;50.040;18.400;2023-10-09T16:36:21;36.38;;;14.77;;
74510;SDS011;62991;50.040;18.400;2023-10-09T16:39:21;44.20;;;17.58;;
74510;SDS011;62991;50.040;18.400;2023-10-09T16:42:22;52.35;;;22.00;;
74510;SDS011;62991;50.040;18.400;2023-10-09T16:45:24;45.15;;;20.80;;
74510;SDS011;62991;50.040;18.400;2023-10-09T16:48:26;60.22;;;20.85;;
74510;SDS011;62991;50.040;18.400;2023-10-09T16:51:27;66.45;;;23.83;;
74510;SDS011;62991;50.040;18.400;2023-10-09T16:54:28;73.18;;;24.15;;
74510;SDS011;62991;50.040;18.400;2023-10-09T16:57:29;65.75;;;24.17;;
74510;SDS011;62991;50.040;18.400;2023-10-09T17:00:29;55.63;;;21.23;;
74510;SDS011;62991;50.040;18.400;2023-10-09T17:03:34;35.80;;;14.10;;
74510;SDS011;62991;50.040;18.400;2023-10-09T17:06:38;31.95;;;14.23;;
74510;SDS011;62991;50.040;18.400;2023-10-09T17:09:39;25.80;;;11.60;;
74510;SDS011;62991;50.040;18.400;2023-10-09T17:12:42;34.92;;;14.40;;
74510;SDS011;62991;50.040;18.400;2023-10-09T17:15:47;32.85;;;13.90;;
74510;SDS011;62991;50.040;18.400;2023-10-09T17:18:53;78.75;;;27.45;;
74510;SDS011;62991;50.040;18.400;2023-10-09T17:21:53;95.63;;;32.50;;
74510;SDS011;62991;50.040;18.400;2023-10-09T17:24:56;71.55;;;23.55;;
74510;SDS011;62991;50.040;18.400;2023-10-09T17:27:57;57.13;;;19.40;;
74510;SDS011;62991;50.040;18.400;2023-10-09T17:31:01;46.47;;;17.25;;
74510;SDS011;62991;50.040;18.400;2023-10-09T17:34:03;56.58;;;18.73;;
74510;SDS011;62991;50.040;18.400;2023-10-09T17:37:05;31.50;;;13.13;;
74510;SDS011;62991;50.040;18.400;2023-10-09T17:40:07;31.60;;;12.68;;
74510;SDS011;62991;50.040;18.400;2023-10-09T17:43:08;25.65;;;10.52;;
74510;SDS011;62991;50.040;18.400;2023-10-09T17:46:09;23.30;;;9.05;;
74510;SDS011;62991;50.040;18.400;2023-10-09T17:49:12;27.90;;;11.10;;
74510;SDS011;62991;50.040;18.400;2023-10-09T17:52:12;33.55;;;11.60;;
74510;SDS011;62991;50.040;18.400;2023-10-09T17:55:13;29.77;;;11.98;;
74510;SDS011;62991;50.040;18.400;2023-10-09T17:58:17;39.67;;;14.15;;
74510;SDS011;62991;50.040;18.400;2023-10-09T18:01:18;41.70;;;15.85;;
74510;SDS011;62991;50.040;18.400;2023-10-09T18:04:19;36.80;;;16.35;;
74510;SDS011;62991;50.040;18.400;2023-10-09T18:07:19;40.50;;;16.88;;
74510;SDS011;62991;50.040;18.400;2023-10-09T18:10:20;40.03;;;16.92;;
74510;SDS011;62991;50.040;18.400;2023-10-09T18:13:22;60.17;;;22.63;;
74510;SDS011;62991;50.040;18.400;2023-10-09T18:16:25;79.72;;;26.45;;
74510;SDS011;62991;50.040;18.400;2023-10-09T18:19:26;69.47;;;25.73;;
74510;SDS011;62991;50.040;18.400;2023-10-09T18:22:29;61.65;;;23.35;;
74510;SDS011;62991;50.040;18.400;2023-10-09T18:25:29;72.05;;;27.63;;
74510;SDS011;62991;50.040;18.400;2023-10-09T18:28:30;66.35;;;24.67;;
74510;SDS011;62991;50.040;18.400;2023-10-09T18:31:31;45.40;;;19.42;;
74510;SDS011;62991;50.040;18.400;2023-10-09T18:34:31;51.67;;;19.88;;
74510;SDS011;62991;50.040;18.400;2023-10-09T18:37:32;41.72;;;17.02;;